Terminal Aerodrome Forecast
Issued by NWS

Home | Current Version | Previous Version | Graphics & Text | Print | Product List | Glossary On
Versions: 1 2 3 4 5 6 7 8 9 10 11 12 13 14 15 16 17 18 19 20 21 22 23 24 25 26 27 28 29 30 31 32 33 34 35 36 37
000
FTUS43 KLOT 300700 AAA
TAFDPA
TAF AMD
KDPA 300706Z 3007/0106 03011KT P6SM SCT008 OVC012
     FM301400 36007KT P6SM BKN015
     FM302000 06009KT P6SM SCT020
     FM010300 08005KT P6SM SCT015=

USA.gov is the U.S. government's official web portal to all federal, state and local government web resources and services.